createdAt,value
2022-08-07T00:01:44.394Z,59.34
2022-08-07T00:04:09.460Z,59.30
2022-08-07T00:06:45.579Z,59.42
2022-08-07T00:09:22.253Z,59.32
2022-08-07T00:11:55.494Z,59.34
2022-08-07T00:14:31.286Z,59.48
2022-08-07T00:17:02.087Z,59.59
2022-08-07T00:20:00.463Z,59.59
2022-08-07T00:22:24.718Z,59.60
2022-08-07T00:25:16.607Z,59.71
2022-08-07T00:27:53.696Z,59.84
2022-08-07T00:30:27.899Z,59.81
2022-08-07T00:32:58.567Z,59.84
2022-08-07T00:35:29.889Z,59.91
2022-08-07T00:38:00.322Z,60.00
2022-08-07T00:40:39.228Z,60.10
2022-08-07T00:43:59.782Z,60.19
2022-08-07T00:46:02.093Z,60.11
2022-08-07T00:48:32.378Z,60.10
2022-08-07T00:51:02.984Z,60.34
2022-08-07T00:53:38.836Z,60.28
2022-08-07T00:56:19.023Z,60.39
2022-08-07T00:58:49.738Z,60.44
2022-08-07T01:01:20.970Z,60.57
2022-08-07T01:03:55.803Z,60.71
2022-08-07T01:06:29.790Z,60.60
2022-08-07T01:09:00.982Z,60.66
2022-08-07T01:12:09.037Z,60.63
2022-08-07T01:14:28.285Z,60.64
2022-08-07T01:16:57.960Z,60.70
2022-08-07T01:19:32.189Z,60.59
2022-08-07T01:22:03.139Z,60.63
2022-08-07T01:24:32.707Z,60.57
2022-08-07T01:27:02.025Z,60.49
2022-08-07T01:29:33.938Z,60.57
2022-08-07T01:32:05.191Z,60.50
2022-08-07T01:34:35.337Z,60.63
2022-08-07T01:37:04.158Z,60.74
2022-08-07T01:39:41.154Z,60.64
2022-08-07T01:42:39.220Z,60.66
2022-08-07T01:45:10.002Z,60.73
2022-08-07T01:48:20.615Z,60.82
2022-08-07T01:50:36.518Z,60.89
2022-08-07T01:53:08.535Z,60.89
2022-08-07T01:55:42.675Z,61.01
2022-08-07T01:58:27.437Z,61.06
2022-08-07T02:01:09.488Z,61.12
2022-08-07T02:04:01.585Z,61.10
2022-08-07T02:06:32.925Z,61.30
2022-08-07T02:09:08.312Z,61.21
2022-08-07T02:12:03.361Z,61.28
2022-08-07T02:14:40.752Z,61.44
2022-08-07T02:17:13.342Z,61.54
2022-08-07T02:20:05.628Z,61.60
2022-08-07T02:22:41.468Z,61.59
2022-08-07T02:25:18.181Z,61.66
2022-08-07T02:27:52.199Z,61.73
2022-08-07T02:30:22.495Z,61.68
2022-08-07T02:33:00.729Z,61.74
2022-08-07T02:36:30.302Z,61.76
2022-08-07T02:38:32.606Z,61.92
2022-08-07T02:41:04.009Z,61.91
2022-08-07T02:43:38.884Z,62.01
2022-08-07T02:46:11.388Z,62.06
2022-08-07T02:48:39.895Z,62.12
2022-08-07T02:51:41.854Z,62.12
2022-08-07T02:54:13.096Z,62.13
2022-08-07T02:56:42.675Z,62.17
2022-08-07T02:59:15.292Z,62.15
2022-08-07T03:01:47.202Z,62.05
2022-08-07T03:04:23.277Z,62.15
2022-08-07T03:06:53.743Z,62.10
2022-08-07T03:09:43.151Z,62.23
2022-08-07T03:12:22.336Z,62.24
2022-08-07T03:15:02.558Z,62.13
2022-08-07T03:17:52.975Z,62.28
2022-08-07T03:20:24.344Z,62.32
2022-08-07T03:22:57.018Z,62.38
2022-08-07T03:25:32.566Z,62.51
2022-08-07T03:28:37.573Z,62.45
2022-08-07T03:31:23.713Z,62.45
2022-08-07T03:33:59.880Z,62.30
2022-08-07T03:36:30.958Z,62.35
2022-08-07T03:39:06.668Z,62.43
2022-08-07T03:41:42.504Z,62.39
2022-08-07T03:44:16.701Z,62.28
2022-08-07T03:47:10.804Z,62.31
2022-08-07T03:49:39.922Z,62.30
2022-08-07T03:52:22.647Z,62.38
2022-08-07T03:55:06.712Z,62.38
2022-08-07T03:58:33.042Z,62.42
2022-08-07T04:00:29.312Z,62.50
2022-08-07T04:03:03.879Z,62.47
2022-08-07T04:05:40.578Z,62.47
2022-08-07T04:08:12.991Z,62.58
2022-08-07T04:10:54.865Z,62.61
2022-08-07T04:14:10.700Z,62.72
2022-08-07T04:16:30.372Z,62.76
2022-08-07T04:19:04.398Z,62.84
2022-08-07T04:21:47.982Z,63.05
2022-08-07T04:24:34.206Z,63.32
2022-08-07T04:27:15.164Z,63.30
2022-08-07T04:30:01.549Z,63.48
2022-08-07T04:32:34.662Z,63.39
2022-08-07T04:35:11.332Z,63.41
2022-08-07T04:38:03.503Z,63.58
2022-08-07T04:40:29.998Z,63.84
2022-08-07T04:43:01.663Z,64.21
2022-08-07T04:46:12.502Z,64.30
2022-08-07T04:49:17.787Z,64.61
2022-08-07T04:52:00.682Z,64.78
2022-08-07T04:54:35.458Z,64.89
2022-08-07T04:58:24.118Z,65.11
2022-08-07T05:00:36.865Z,65.25
2022-08-07T05:04:00.475Z,65.15
2022-08-07T05:06:28.076Z,64.82
2022-08-07T05:09:05.040Z,65.12
2022-08-07T05:11:57.422Z,64.81
2022-08-07T05:14:54.448Z,64.63
2022-08-07T05:17:52.638Z,64.64
2022-08-07T05:20:23.822Z,64.37
2022-08-07T05:22:55.203Z,64.38
2022-08-07T05:26:09.897Z,64.21
2022-08-07T05:28:20.221Z,64.21
2022-08-07T05:30:54.773Z,64.24
2022-08-07T05:33:27.584Z,64.25
2022-08-07T05:35:57.283Z,64.27
2022-08-07T05:38:59.484Z,64.09
2022-08-07T05:41:18.456Z,64.17
2022-08-07T05:44:11.913Z,64.10
2022-08-07T05:46:43.140Z,63.85
2022-08-07T05:49:14.675Z,64.12
2022-08-07T05:51:47.478Z,64.20
2022-08-07T05:54:31.233Z,64.47
2022-08-07T05:57:09.495Z,63.97
2022-08-07T05:59:57.290Z,63.27
2022-08-07T06:02:30.853Z,63.27
2022-08-07T06:05:15.702Z,62.72
2022-08-07T06:08:12.984Z,62.31
2022-08-07T06:10:34.069Z,62.25
2022-08-07T06:13:02.957Z,62.01
2022-08-07T06:15:39.460Z,62.13
2022-08-07T06:18:14.040Z,62.17
2022-08-07T06:20:51.165Z,62.38
2022-08-07T06:24:36.858Z,62.44
2022-08-07T06:26:27.526Z,62.47
2022-08-07T06:28:59.858Z,62.50
2022-08-07T06:31:46.821Z,62.44
2022-08-07T06:34:20.490Z,62.52
2022-08-07T06:36:52.230Z,62.62
2022-08-07T06:40:16.867Z,62.35
2022-08-07T06:42:33.203Z,62.28
2022-08-07T06:45:12.052Z,62.25
2022-08-07T06:47:48.083Z,62.52
2022-08-07T06:50:27.489Z,62.35
2022-08-07T06:53:04.330Z,62.37
2022-08-07T06:56:00.489Z,62.29
2022-08-07T06:58:27.468Z,62.37
2022-08-07T07:00:58.153Z,62.28
2022-08-07T07:03:47.913Z,62.33
2022-08-07T07:06:26.106Z,62.21
2022-08-07T07:08:55.197Z,62.08
2022-08-07T07:12:08.894Z,62.13
2022-08-07T07:14:18.475Z,62.14
2022-08-07T07:16:53.786Z,62.13
2022-08-07T07:19:56.403Z,61.94
2022-08-07T07:22:36.857Z,62.01
2022-08-07T07:26:31.696Z,61.96
2022-08-07T07:28:48.356Z,61.81
2022-08-07T07:31:39.976Z,61.50
2022-08-07T07:34:18.577Z,61.30
2022-08-07T07:36:53.839Z,61.06
2022-08-07T07:39:25.807Z,60.73
2022-08-07T07:42:19.914Z,60.80
2022-08-07T07:44:50.293Z,60.82
2022-08-07T07:47:23.816Z,59.77
2022-08-07T07:50:34.814Z,59.46
2022-08-07T07:52:47.127Z,59.60
2022-08-07T07:55:19.668Z,59.59
2022-08-07T07:57:53.618Z,58.85
2022-08-07T08:00:31.427Z,58.93
2022-08-07T08:03:08.683Z,58.82
2022-08-07T08:05:51.134Z,58.53
2022-08-07T08:08:35.185Z,58.12
2022-08-07T08:11:09.334Z,57.90
2022-08-07T08:13:53.424Z,57.90
2022-08-07T08:16:32.190Z,58.25
2022-08-07T08:19:17.393Z,57.91
2022-08-07T08:22:10.731Z,56.81
2022-08-07T08:25:24.709Z,56.95
2022-08-07T08:28:12.618Z,56.90
2022-08-07T08:30:51.172Z,56.37
2022-08-07T08:33:33.101Z,56.25
2022-08-07T08:36:03.524Z,56.01
2022-08-07T08:38:38.618Z,55.95
2022-08-07T08:41:57.064Z,55.99
2022-08-07T08:44:59.065Z,55.45
2022-08-07T08:47:51.787Z,54.98
2022-08-07T08:50:28.583Z,54.81
2022-08-07T08:53:13.929Z,54.74
2022-08-07T08:56:06.309Z,54.35
2022-08-07T08:58:54.680Z,54.15
2022-08-07T09:01:40.047Z,53.10
2022-08-07T09:04:41.687Z,52.26
2022-08-07T09:07:57.968Z,52.32
2022-08-07T09:10:26.880Z,52.01
2022-08-07T09:13:14.678Z,51.60
2022-08-07T09:16:35.038Z,51.69
2022-08-07T09:19:07.148Z,52.13
2022-08-07T09:24:28.291Z,51.66
2022-08-07T09:25:33.022Z,50.74
2022-08-07T09:30:04.645Z,50.73
2022-08-07T09:31:33.610Z,50.60
2022-08-07T09:34:27.245Z,49.88
2022-08-07T09:37:03.463Z,49.26
2022-08-07T09:39:53.739Z,49.19
2022-08-07T09:42:50.203Z,49.05
2022-08-07T09:47:52.328Z,48.09
2022-08-07T09:50:02.070Z,47.68
2022-08-07T09:52:15.381Z,47.87
2022-08-07T09:54:49.749Z,47.57
2022-08-07T09:57:47.098Z,47.99
2022-08-07T10:00:20.813Z,48.12
2022-08-07T10:03:08.135Z,47.47
2022-08-07T10:06:12.275Z,47.41
2022-08-07T10:09:13.467Z,47.39
2022-08-07T10:12:21.883Z,46.98
2022-08-07T10:15:18.523Z,46.82
2022-08-07T10:18:26.570Z,46.64
2022-08-07T10:21:19.837Z,46.25
2022-08-07T10:24:28.523Z,45.00
2022-08-07T10:27:10.533Z,44.72
2022-08-07T10:30:07.391Z,44.81
2022-08-07T10:34:06.308Z,44.54
2022-08-07T10:36:29.253Z,43.00
2022-08-07T10:39:15.639Z,44.02
2022-08-07T10:42:09.711Z,43.96
2022-08-07T10:44:57.289Z,43.59
2022-08-07T10:47:54.488Z,43.32
2022-08-07T10:50:31.841Z,43.59
2022-08-07T10:53:43.934Z,43.77
2022-08-07T10:56:20.699Z,42.31
2022-08-07T10:59:21.407Z,42.54
2022-08-07T11:02:05.064Z,43.22
2022-08-07T11:05:14.309Z,43.78
2022-08-07T11:08:06.545Z,43.84
2022-08-07T11:10:57.880Z,43.85
2022-08-07T11:14:44.284Z,43.53
2022-08-07T11:16:34.355Z,43.28
2022-08-07T11:19:30.198Z,43.67
2022-08-07T11:22:44.025Z,44.63
2022-08-07T11:25:19.834Z,43.33
2022-08-07T11:28:06.936Z,42.70
2022-08-07T11:30:45.957Z,43.58
2022-08-07T11:33:15.100Z,43.53
2022-08-07T11:35:59.626Z,43.94
2022-08-07T11:39:04.329Z,43.74
2022-08-07T11:42:16.858Z,43.44
2022-08-07T11:45:35.435Z,43.12
2022-08-07T11:48:32.272Z,43.40
2022-08-07T11:51:41.270Z,42.83
2022-08-07T11:54:57.574Z,42.37
2022-08-07T11:58:00.718Z,42.53
2022-08-07T12:01:01.704Z,42.78
2022-08-07T12:04:13.084Z,43.46
2022-08-07T12:07:02.426Z,44.61
2022-08-07T12:09:46.600Z,44.94
2022-08-07T12:12:26.232Z,44.67
2022-08-07T12:15:08.209Z,44.74
2022-08-07T12:17:59.468Z,45.13
2022-08-07T12:20:36.510Z,45.34
2022-08-07T12:23:17.931Z,45.45
2022-08-07T12:26:22.076Z,45.20
2022-08-07T12:29:09.503Z,45.19
2022-08-07T12:32:04.034Z,45.55
2022-08-07T12:34:39.130Z,45.55
2022-08-07T12:37:16.898Z,45.91
2022-08-07T12:39:57.433Z,46.12
2022-08-07T12:42:32.109Z,46.23
2022-08-07T12:45:12.280Z,45.38
2022-08-07T12:48:01.283Z,45.57
2022-08-07T12:50:49.581Z,45.58
2022-08-07T12:53:19.027Z,44.26
2022-08-07T12:56:03.095Z,44.45
2022-08-07T12:58:39.939Z,44.13
2022-08-07T13:01:28.006Z,44.32
2022-08-07T13:04:13.634Z,44.50
2022-08-07T13:08:12.459Z,44.61
2022-08-07T13:10:39.788Z,44.51
2022-08-07T13:13:47.293Z,44.87
2022-08-07T13:16:17.871Z,45.09
2022-08-07T13:19:01.255Z,45.17
2022-08-07T13:21:57.449Z,45.17
2022-08-07T13:24:52.147Z,45.32
2022-08-07T13:28:11.704Z,45.56
2022-08-07T13:30:41.288Z,44.85
2022-08-07T13:34:31.913Z,44.59
2022-08-07T13:36:25.734Z,44.97
2022-08-07T13:39:13.065Z,44.91
2022-08-07T13:41:58.469Z,44.74
2022-08-07T13:44:34.685Z,43.34
2022-08-07T13:47:09.487Z,43.35
2022-08-07T13:50:34.376Z,43.79
2022-08-07T13:52:39.624Z,43.76
2022-08-07T13:55:19.808Z,44.18
2022-08-07T13:58:27.679Z,44.20
2022-08-07T14:01:00.348Z,44.56
2022-08-07T14:04:08.131Z,44.58
2022-08-07T14:06:38.769Z,44.50
2022-08-07T14:10:01.360Z,44.40
2022-08-07T14:12:07.438Z,44.33
2022-08-07T14:14:48.300Z,44.11
2022-08-07T14:18:12.299Z,44.46
2022-08-07T14:20:43.229Z,44.58
2022-08-07T14:23:58.798Z,44.61
2022-08-07T14:26:29.914Z,44.39
2022-08-07T14:30:02.673Z,44.45
2022-08-07T14:31:56.367Z,44.23
2022-08-07T14:34:30.215Z,44.31
2022-08-07T14:37:07.988Z,44.32
2022-08-07T14:43:01.153Z,45.00
2022-08-07T14:45:46.617Z,44.76
2022-08-07T14:48:27.281Z,44.71
2022-08-07T14:51:00.256Z,44.73
2022-08-07T14:54:05.487Z,44.74
2022-08-07T14:56:32.110Z,45.08
2022-08-07T14:59:14.092Z,44.93
2022-08-07T15:01:59.054Z,44.67
2022-08-07T15:04:28.938Z,44.59
2022-08-07T15:06:57.912Z,44.31
2022-08-07T15:09:58.868Z,44.07
2022-08-07T15:12:30.404Z,43.85
2022-08-07T15:15:17.353Z,44.00
2022-08-07T15:18:14.368Z,44.27
2022-08-07T15:21:07.921Z,44.21
2022-08-07T15:25:03.999Z,43.88
2022-08-07T15:26:38.463Z,43.69
2022-08-07T15:30:04.384Z,43.60
2022-08-07T15:32:05.103Z,43.61
2022-08-07T15:34:50.447Z,43.62
2022-08-07T15:38:04.740Z,43.84
2022-08-07T15:40:33.995Z,43.83
2022-08-07T15:43:53.493Z,43.71
2022-08-07T15:46:39.183Z,43.80
2022-08-07T15:49:18.253Z,43.40
2022-08-07T15:54:27.901Z,43.89
2022-08-07T15:56:59.973Z,44.02
2022-08-07T15:59:40.069Z,43.45
2022-08-07T16:02:27.200Z,43.70
2022-08-07T16:05:00.317Z,43.48
2022-08-07T16:08:30.579Z,43.66
2022-08-07T16:10:33.648Z,43.33
2022-08-07T16:13:57.720Z,43.76
2022-08-07T16:16:57.295Z,43.67
2022-08-07T16:19:58.892Z,43.67
2022-08-07T16:23:09.724Z,43.46
2022-08-07T16:26:05.276Z,43.44
2022-08-07T16:30:07.683Z,43.37
2022-08-07T16:31:50.709Z,43.25
2022-08-07T16:34:48.282Z,43.39
2022-08-07T16:38:03.893Z,43.45
2022-08-07T16:41:01.690Z,43.58
2022-08-07T16:44:04.127Z,43.59
2022-08-07T16:47:28.863Z,43.48
2022-08-07T16:50:37.076Z,43.42
2022-08-07T16:54:01.469Z,43.67
2022-08-07T16:56:49.993Z,43.64
2022-08-07T16:59:46.097Z,43.67
2022-08-07T17:02:52.222Z,43.73
2022-08-07T17:06:01.476Z,43.82
2022-08-07T17:08:17.719Z,43.74
2022-08-07T17:10:55.699Z,43.81
2022-08-07T17:13:41.519Z,44.18
2022-08-07T17:16:44.886Z,43.93
2022-08-07T17:20:02.512Z,43.84
2022-08-07T17:22:42.445Z,43.75
2022-08-07T17:25:47.523Z,44.08
2022-08-07T17:28:19.342Z,43.92
2022-08-07T17:30:58.277Z,44.15
2022-08-07T17:34:08.846Z,44.34
2022-08-07T17:36:31.069Z,44.51
2022-08-07T17:39:57.867Z,44.54
2022-08-07T17:42:35.924Z,44.36
2022-08-07T17:45:45.432Z,44.41
2022-08-07T17:48:34.471Z,44.57
2022-08-07T17:51:02.741Z,44.81
2022-08-07T17:54:00.795Z,45.23
2022-08-07T17:56:49.404Z,45.81
2022-08-07T17:59:45.617Z,46.07
2022-08-07T18:02:41.300Z,46.11
2022-08-07T18:06:06.421Z,46.19
2022-08-07T18:09:00.538Z,46.52
2022-08-07T18:12:07.416Z,46.73
2022-08-07T18:14:46.436Z,47.06
2022-08-07T18:18:39.858Z,46.95
2022-08-07T18:21:42.259Z,46.98
2022-08-07T18:24:33.678Z,46.63
2022-08-07T18:27:25.700Z,46.56
2022-08-07T18:30:31.972Z,46.57
2022-08-07T18:33:24.174Z,46.58
2022-08-07T18:36:03.600Z,46.91
2022-08-07T18:40:05.436Z,46.95
2022-08-07T18:47:05.866Z,48.07
2022-08-07T18:50:30.968Z,48.98
2022-08-07T18:52:55.157Z,49.28
2022-08-07T18:56:08.637Z,49.71
2022-08-07T18:59:47.609Z,50.00
2022-08-07T19:02:44.915Z,49.90
2022-08-07T19:06:03.466Z,49.41
2022-08-07T19:08:52.156Z,49.66
2022-08-07T19:12:04.166Z,49.91
2022-08-07T19:14:51.086Z,49.98
2022-08-07T19:17:55.831Z,49.86
2022-08-07T19:20:30.237Z,49.59
2022-08-07T19:23:18.910Z,49.60
2022-08-07T19:26:23.262Z,49.79
2022-08-07T19:30:56.703Z,50.18
2022-08-07T19:32:10.249Z,50.67
2022-08-07T19:34:47.673Z,50.61
2022-08-07T19:37:23.994Z,50.97
2022-08-07T19:40:14.414Z,51.11
2022-08-07T19:42:46.815Z,51.13
2022-08-07T19:46:00.974Z,51.05
2022-08-07T19:48:24.417Z,51.39
2022-08-07T19:50:54.556Z,51.62
2022-08-07T19:54:32.248Z,51.83
2022-08-07T19:57:51.733Z,51.90
2022-08-07T19:59:41.310Z,51.57
2022-08-07T20:02:19.552Z,51.69
2022-08-07T20:04:53.110Z,51.57
2022-08-07T20:07:46.055Z,51.59
2022-08-07T20:10:35.218Z,51.85
2022-08-07T20:13:26.958Z,52.09
2022-08-07T20:16:04.214Z,52.15
2022-08-07T20:18:34.731Z,52.34
2022-08-07T20:21:20.938Z,52.51
2022-08-07T20:24:00.508Z,52.69
2022-08-07T20:26:45.256Z,52.83
2022-08-07T20:29:49.267Z,53.06
2022-08-07T20:32:22.710Z,53.28
2022-08-07T20:35:07.609Z,53.47
2022-08-07T20:37:55.301Z,53.46
2022-08-07T20:40:33.780Z,53.08
2022-08-07T20:43:14.576Z,52.96
2022-08-07T20:46:28.666Z,53.14
2022-08-07T20:48:42.210Z,53.33
2022-08-07T20:51:35.850Z,53.64
2022-08-07T20:54:15.309Z,53.90
2022-08-07T20:57:03.302Z,54.03
2022-08-07T21:00:07.010Z,54.06
2022-08-07T21:02:54.584Z,54.10
2022-08-07T21:08:57.748Z,54.69
2022-08-07T21:11:46.081Z,54.61
2022-08-07T21:14:38.589Z,54.75
2022-08-07T21:18:02.309Z,54.86
2022-08-07T21:20:26.870Z,54.95
2022-08-07T21:23:07.611Z,55.12
2022-08-07T21:26:01.354Z,55.17
2022-08-07T21:28:59.683Z,55.30
2022-08-07T21:32:46.721Z,55.44
2022-08-07T21:36:05.022Z,55.19
2022-08-07T21:38:35.203Z,55.18
2022-08-07T21:41:15.490Z,55.54
2022-08-07T21:44:08.518Z,55.67
2022-08-07T21:47:12.271Z,56.01
2022-08-07T23:56:01.065Z,57.96
